sensor_id;sensor_type;location;lat;lon;timestamp;temperature;humidity
45969;DHT22;31676;40.444;-3.668;2023-05-03T00:02:09;27.00;70.80
45969;DHT22;31676;40.444;-3.668;2023-05-03T00:04:35;27.00;70.80
45969;DHT22;31676;40.444;-3.668;2023-05-03T00:07:01;27.00;70.80
45969;DHT22;31676;40.444;-3.668;2023-05-03T00:09:28;26.90;70.70
45969;DHT22;31676;40.444;-3.668;2023-05-03T00:11:54;27.00;70.80
45969;DHT22;31676;40.444;-3.668;2023-05-03T00:14:19;27.00;70.80
45969;DHT22;31676;40.444;-3.668;2023-05-03T00:16:45;27.00;70.80
45969;DHT22;31676;40.444;-3.668;2023-05-03T00:19:11;27.00;70.80
45969;DHT22;31676;40.444;-3.668;2023-05-03T00:21:37;27.00;70.80
45969;DHT22;31676;40.444;-3.668;2023-05-03T00:24:02;27.00;70.80
45969;DHT22;31676;40.444;-3.668;2023-05-03T00:26:28;26.90;70.70
45969;DHT22;31676;40.444;-3.668;2023-05-03T00:28:54;27.00;70.80
45969;DHT22;31676;40.444;-3.668;2023-05-03T00:31:19;26.90;70.80
45969;DHT22;31676;40.444;-3.668;2023-05-03T00:33:45;26.90;70.80
45969;DHT22;31676;40.444;-3.668;2023-05-03T00:36:11;26.90;70.80
45969;DHT22;31676;40.444;-3.668;2023-05-03T00:38:38;26.90;70.80
45969;DHT22;31676;40.444;-3.668;2023-05-03T00:41:04;26.90;70.80
45969;DHT22;31676;40.444;-3.668;2023-05-03T00:43:31;26.90;70.80
45969;DHT22;31676;40.444;-3.668;2023-05-03T00:45:57;26.90;70.80
45969;DHT22;31676;40.444;-3.668;2023-05-03T00:48:24;26.90;70.80
45969;DHT22;31676;40.444;-3.668;2023-05-03T00:50:50;26.90;70.90
45969;DHT22;31676;40.444;-3.668;2023-05-03T00:53:15;26.90;70.90
45969;DHT22;31676;40.444;-3.668;2023-05-03T00:55:42;26.90;70.90
45969;DHT22;31676;40.444;-3.668;2023-05-03T00:58:08;26.90;70.90
45969;DHT22;31676;40.444;-3.668;2023-05-03T01:00:33;26.90;70.90
45969;DHT22;31676;40.444;-3.668;2023-05-03T01:02:59;26.90;70.90
45969;DHT22;31676;40.444;-3.668;2023-05-03T01:05:25;26.90;70.90
45969;DHT22;31676;40.444;-3.668;2023-05-03T01:15:38;26.90;70.90
45969;DHT22;31676;40.444;-3.668;2023-05-03T01:18:09;26.90;70.90
45969;DHT22;31676;40.444;-3.668;2023-05-03T01:20:36;26.90;70.90
45969;DHT22;31676;40.444;-3.668;2023-05-03T01:25:28;26.90;70.90
45969;DHT22;31676;40.444;-3.668;2023-05-03T01:27:54;26.90;70.90
45969;DHT22;31676;40.444;-3.668;2023-05-03T01:30:20;26.90;71.00
45969;DHT22;31676;40.444;-3.668;2023-05-03T01:38:11;26.90;71.00
45969;DHT22;31676;40.444;-3.668;2023-05-03T01:40:39;26.90;71.00
45969;DHT22;31676;40.444;-3.668;2023-05-03T01:43:07;26.90;71.00
45969;DHT22;31676;40.444;-3.668;2023-05-03T01:45:33;26.90;71.00
45969;DHT22;31676;40.444;-3.668;2023-05-03T01:47:59;26.90;71.00
45969;DHT22;31676;40.444;-3.668;2023-05-03T01:50:25;26.90;71.00
45969;DHT22;31676;40.444;-3.668;2023-05-03T01:52:51;26.90;71.00
45969;DHT22;31676;40.444;-3.668;2023-05-03T01:55:17;26.90;71.10
45969;DHT22;31676;40.444;-3.668;2023-05-03T01:57:43;26.90;71.00
45969;DHT22;31676;40.444;-3.668;2023-05-03T02:00:09;26.90;71.10
45969;DHT22;31676;40.444;-3.668;2023-05-03T02:02:35;26.90;71.10
45969;DHT22;31676;40.444;-3.668;2023-05-03T02:05:01;26.90;71.00
45969;DHT22;31676;40.444;-3.668;2023-05-03T02:07:27;26.90;71.10
45969;DHT22;31676;40.444;-3.668;2023-05-03T02:09:52;26.90;71.10
45969;DHT22;31676;40.444;-3.668;2023-05-03T02:12:18;26.90;71.10
45969;DHT22;31676;40.444;-3.668;2023-05-03T02:14:44;26.90;71.10
45969;DHT22;31676;40.444;-3.668;2023-05-03T02:17:09;26.90;71.70
45969;DHT22;31676;40.444;-3.668;2023-05-03T02:19:35;26.90;71.10
45969;DHT22;31676;40.444;-3.668;2023-05-03T02:22:01;26.90;71.10
45969;DHT22;31676;40.444;-3.668;2023-05-03T02:24:27;26.90;71.10
45969;DHT22;31676;40.444;-3.668;2023-05-03T02:26:54;26.90;71.10
45969;DHT22;31676;40.444;-3.668;2023-05-03T02:29:20;26.80;71.00
45969;DHT22;31676;40.444;-3.668;2023-05-03T02:31:45;26.90;71.10
45969;DHT22;31676;40.444;-3.668;2023-05-03T02:34:11;26.90;71.10
45969;DHT22;31676;40.444;-3.668;2023-05-03T02:36:37;26.90;71.10
45969;DHT22;31676;40.444;-3.668;2023-05-03T02:39:03;26.90;71.20
45969;DHT22;31676;40.444;-3.668;2023-05-03T02:41:29;26.80;71.10
45969;DHT22;31676;40.444;-3.668;2023-05-03T02:43:55;26.90;71.20
45969;DHT22;31676;40.444;-3.668;2023-05-03T02:46:20;26.80;71.10
45969;DHT22;31676;40.444;-3.668;2023-05-03T02:48:46;26.80;71.10
45969;DHT22;31676;40.444;-3.668;2023-05-03T02:51:12;26.90;71.20
45969;DHT22;31676;40.444;-3.668;2023-05-03T02:53:38;26.90;71.20
45969;DHT22;31676;40.444;-3.668;2023-05-03T02:56:03;26.80;71.10
45969;DHT22;31676;40.444;-3.668;2023-05-03T02:58:30;26.80;71.10
45969;DHT22;31676;40.444;-3.668;2023-05-03T03:00:56;26.90;71.20
45969;DHT22;31676;40.444;-3.668;2023-05-03T03:03:21;26.80;71.10
45969;DHT22;31676;40.444;-3.668;2023-05-03T03:05:47;26.80;71.10
45969;DHT22;31676;40.444;-3.668;2023-05-03T03:08:13;26.80;71.10
45969;DHT22;31676;40.444;-3.668;2023-05-03T03:10:38;26.80;71.20
45969;DHT22;31676;40.444;-3.668;2023-05-03T03:13:04;26.80;71.20
45969;DHT22;31676;40.444;-3.668;2023-05-03T03:15:30;26.80;71.20
45969;DHT22;31676;40.444;-3.668;2023-05-03T03:17:55;26.80;71.20
45969;DHT22;31676;40.444;-3.668;2023-05-03T03:20:22;26.80;71.20
45969;DHT22;31676;40.444;-3.668;2023-05-03T03:22:48;26.80;71.20
45969;DHT22;31676;40.444;-3.668;2023-05-03T03:25:14;26.80;71.20
45969;DHT22;31676;40.444;-3.668;2023-05-03T03:27:40;26.80;71.20
45969;DHT22;31676;40.444;-3.668;2023-05-03T03:30:06;26.80;71.20
45969;DHT22;31676;40.444;-3.668;2023-05-03T03:32:32;26.80;71.20
45969;DHT22;31676;40.444;-3.668;2023-05-03T03:34:58;26.80;71.20
45969;DHT22;31676;40.444;-3.668;2023-05-03T03:37:23;26.80;71.20
45969;DHT22;31676;40.444;-3.668;2023-05-03T03:39:49;26.80;71.20
45969;DHT22;31676;40.444;-3.668;2023-05-03T03:42:15;26.80;71.30
45969;DHT22;31676;40.444;-3.668;2023-05-03T03:44:40;26.80;71.20
45969;DHT22;31676;40.444;-3.668;2023-05-03T03:47:06;26.80;71.20
45969;DHT22;31676;40.444;-3.668;2023-05-03T03:49:32;26.80;71.20
45969;DHT22;31676;40.444;-3.668;2023-05-03T03:51:58;26.80;71.30
45969;DHT22;31676;40.444;-3.668;2023-05-03T03:54:23;26.80;71.30
45969;DHT22;31676;40.444;-3.668;2023-05-03T03:56:49;26.80;71.30
45969;DHT22;31676;40.444;-3.668;2023-05-03T03:59:16;26.80;71.30
45969;DHT22;31676;40.444;-3.668;2023-05-03T04:01:42;26.70;71.30
45969;DHT22;31676;40.444;-3.668;2023-05-03T04:04:09;26.80;71.30
45969;DHT22;31676;40.444;-3.668;2023-05-03T04:06:34;26.80;71.30
45969;DHT22;31676;40.444;-3.668;2023-05-03T04:09:00;26.80;71.30
45969;DHT22;31676;40.444;-3.668;2023-05-03T04:11:26;26.70;71.20
45969;DHT22;31676;40.444;-3.668;2023-05-03T04:13:51;26.70;71.30
45969;DHT22;31676;40.444;-3.668;2023-05-03T04:16:17;26.70;71.30
45969;DHT22;31676;40.444;-3.668;2023-05-03T04:18:43;26.70;71.30
45969;DHT22;31676;40.444;-3.668;2023-05-03T04:21:08;26.70;71.30
45969;DHT22;31676;40.444;-3.668;2023-05-03T04:23:34;26.70;71.30
45969;DHT22;31676;40.444;-3.668;2023-05-03T04:26:00;26.70;71.30
45969;DHT22;31676;40.444;-3.668;2023-05-03T04:28:25;26.70;71.30
45969;DHT22;31676;40.444;-3.668;2023-05-03T04:30:51;26.70;71.30
45969;DHT22;31676;40.444;-3.668;2023-05-03T04:33:18;26.70;71.30
45969;DHT22;31676;40.444;-3.668;2023-05-03T04:35:44;26.70;71.30
45969;DHT22;31676;40.444;-3.668;2023-05-03T04:38:10;26.70;71.30
45969;DHT22;31676;40.444;-3.668;2023-05-03T04:40:35;26.70;71.30
45969;DHT22;31676;40.444;-3.668;2023-05-03T04:43:01;26.70;71.30
45969;DHT22;31676;40.444;-3.668;2023-05-03T04:45:27;26.70;72.00
45969;DHT22;31676;40.444;-3.668;2023-05-03T04:47:53;26.70;71.30
45969;DHT22;31676;40.444;-3.668;2023-05-03T04:50:19;26.70;71.40
45969;DHT22;31676;40.444;-3.668;2023-05-03T04:52:44;26.70;71.30
45969;DHT22;31676;40.444;-3.668;2023-05-03T04:55:11;26.70;71.40
45969;DHT22;31676;40.444;-3.668;2023-05-03T04:57:37;26.70;71.40
45969;DHT22;31676;40.444;-3.668;2023-05-03T05:00:02;26.70;71.30
45969;DHT22;31676;40.444;-3.668;2023-05-03T05:02:28;26.70;71.40
45969;DHT22;31676;40.444;-3.668;2023-05-03T05:04:54;26.70;71.40
45969;DHT22;31676;40.444;-3.668;2023-05-03T05:07:20;26.70;71.40
45969;DHT22;31676;40.444;-3.668;2023-05-03T05:09:45;26.70;71.40
45969;DHT22;31676;40.444;-3.668;2023-05-03T05:12:11;26.70;71.40
45969;DHT22;31676;40.444;-3.668;2023-05-03T05:14:37;26.70;71.40
45969;DHT22;31676;40.444;-3.668;2023-05-03T05:17:02;26.70;71.40
45969;DHT22;31676;40.444;-3.668;2023-05-03T05:19:28;26.60;71.30
45969;DHT22;31676;40.444;-3.668;2023-05-03T05:21:54;26.60;71.30
45969;DHT22;31676;40.444;-3.668;2023-05-03T05:24:19;26.70;71.40
45969;DHT22;31676;40.444;-3.668;2023-05-03T05:26:45;26.70;71.40
45969;DHT22;31676;40.444;-3.668;2023-05-03T05:29:11;26.70;71.40
45969;DHT22;31676;40.444;-3.668;2023-05-03T05:31:37;26.70;71.50
45969;DHT22;31676;40.444;-3.668;2023-05-03T05:34:02;26.70;71.40
45969;DHT22;31676;40.444;-3.668;2023-05-03T05:36:29;26.70;71.40
45969;DHT22;31676;40.444;-3.668;2023-05-03T05:38:55;26.60;71.40
45969;DHT22;31676;40.444;-3.668;2023-05-03T05:41:20;26.60;71.40
45969;DHT22;31676;40.444;-3.668;2023-05-03T05:43:46;26.70;71.40
45969;DHT22;31676;40.444;-3.668;2023-05-03T05:46:12;26.70;71.50
45969;DHT22;31676;40.444;-3.668;2023-05-03T05:48:38;26.60;71.40
45969;DHT22;31676;40.444;-3.668;2023-05-03T05:51:04;26.60;71.40
45969;DHT22;31676;40.444;-3.668;2023-05-03T05:53:30;26.60;71.40
45969;DHT22;31676;40.444;-3.668;2023-05-03T05:55:56;26.60;71.40
45969;DHT22;31676;40.444;-3.668;2023-05-03T05:58:21;26.60;71.40
45969;DHT22;31676;40.444;-3.668;2023-05-03T06:00:47;26.60;71.40
45969;DHT22;31676;40.444;-3.668;2023-05-03T06:03:13;26.60;71.40
45969;DHT22;31676;40.444;-3.668;2023-05-03T06:05:40;26.60;71.40
45969;DHT22;31676;40.444;-3.668;2023-05-03T06:08:06;26.60;71.40
45969;DHT22;31676;40.444;-3.668;2023-05-03T06:10:32;26.60;71.40
45969;DHT22;31676;40.444;-3.668;2023-05-03T06:12:58;26.60;71.40
45969;DHT22;31676;40.444;-3.668;2023-05-03T06:15:23;26.60;71.40
45969;DHT22;31676;40.444;-3.668;2023-05-03T06:17:50;26.60;71.40
45969;DHT22;31676;40.444;-3.668;2023-05-03T06:20:16;26.60;71.40
45969;DHT22;31676;40.444;-3.668;2023-05-03T06:22:42;26.60;71.40
45969;DHT22;31676;40.444;-3.668;2023-05-03T06:25:08;26.60;71.40
45969;DHT22;31676;40.444;-3.668;2023-05-03T06:27:35;26.60;71.40
45969;DHT22;31676;40.444;-3.668;2023-05-03T06:30:02;26.60;71.40
45969;DHT22;31676;40.444;-3.668;2023-05-03T06:32:28;26.60;71.40
45969;DHT22;31676;40.444;-3.668;2023-05-03T06:34:54;26.60;71.40
45969;DHT22;31676;40.444;-3.668;2023-05-03T06:37:20;26.60;71.40
45969;DHT22;31676;40.444;-3.668;2023-05-03T06:39:45;26.60;71.40
45969;DHT22;31676;40.444;-3.668;2023-05-03T06:42:11;26.60;71.40
45969;DHT22;31676;40.444;-3.668;2023-05-03T06:44:37;26.60;71.50
45969;DHT22;31676;40.444;-3.668;2023-05-03T06:47:02;26.60;71.50
45969;DHT22;31676;40.444;-3.668;2023-05-03T06:49:28;26.60;71.50
45969;DHT22;31676;40.444;-3.668;2023-05-03T06:51:54;26.60;71.50
45969;DHT22;31676;40.444;-3.668;2023-05-03T06:54:19;26.60;71.50
45969;DHT22;31676;40.444;-3.668;2023-05-03T06:56:45;26.60;71.50
45969;DHT22;31676;40.444;-3.668;2023-05-03T06:59:11;26.60;71.50
45969;DHT22;31676;40.444;-3.668;2023-05-03T07:01:36;26.60;71.50
45969;DHT22;31676;40.444;-3.668;2023-05-03T07:04:02;26.60;71.50
45969;DHT22;31676;40.444;-3.668;2023-05-03T07:06:28;26.60;71.50
45969;DHT22;31676;40.444;-3.668;2023-05-03T07:08:53;26.60;71.50
45969;DHT22;31676;40.444;-3.668;2023-05-03T07:11:20;26.60;71.50
45969;DHT22;31676;40.444;-3.668;2023-05-03T07:13:49;26.60;71.50
45969;DHT22;31676;40.444;-3.668;2023-05-03T07:16:15;26.60;71.50
45969;DHT22;31676;40.444;-3.668;2023-05-03T07:18:41;26.60;71.60
45969;DHT22;31676;40.444;-3.668;2023-05-03T07:21:07;26.50;71.50
45969;DHT22;31676;40.444;-3.668;2023-05-03T07:23:33;26.50;71.50
45969;DHT22;31676;40.444;-3.668;2023-05-03T07:25:58;26.50;71.50
45969;DHT22;31676;40.444;-3.668;2023-05-03T07:28:24;26.60;71.60
45969;DHT22;31676;40.444;-3.668;2023-05-03T07:30:50;26.60;71.60
45969;DHT22;31676;40.444;-3.668;2023-05-03T07:33:16;26.50;71.50
45969;DHT22;31676;40.444;-3.668;2023-05-03T07:35:44;26.60;71.60
45969;DHT22;31676;40.444;-3.668;2023-05-03T07:38:10;26.50;71.50
45969;DHT22;31676;40.444;-3.668;2023-05-03T07:40:36;26.60;71.60
45969;DHT22;31676;40.444;-3.668;2023-05-03T07:43:01;26.50;71.50
45969;DHT22;31676;40.444;-3.668;2023-05-03T07:45:27;26.50;71.50
45969;DHT22;31676;40.444;-3.668;2023-05-03T07:47:54;26.50;71.50
45969;DHT22;31676;40.444;-3.668;2023-05-03T07:50:21;26.50;71.50
45969;DHT22;31676;40.444;-3.668;2023-05-03T07:52:47;26.50;71.50
45969;DHT22;31676;40.444;-3.668;2023-05-03T07:55:16;26.50;71.50
45969;DHT22;31676;40.444;-3.668;2023-05-03T07:57:41;26.50;71.50
45969;DHT22;31676;40.444;-3.668;2023-05-03T08:00:07;26.50;71.50
45969;DHT22;31676;40.444;-3.668;2023-05-03T08:02:35;26.50;71.50
45969;DHT22;31676;40.444;-3.668;2023-05-03T08:05:01;26.50;71.50
45969;DHT22;31676;40.444;-3.668;2023-05-03T08:07:29;26.50;71.50
45969;DHT22;31676;40.444;-3.668;2023-05-03T08:09:55;26.50;71.50
45969;DHT22;31676;40.444;-3.668;2023-05-03T08:12:23;26.50;72.10
45969;DHT22;31676;40.444;-3.668;2023-05-03T08:14:54;26.50;71.50
45969;DHT22;31676;40.444;-3.668;2023-05-03T08:17:20;26.50;71.50
45969;DHT22;31676;40.444;-3.668;2023-05-03T08:19:47;26.50;71.50
45969;DHT22;31676;40.444;-3.668;2023-05-03T08:22:12;26.50;71.50
45969;DHT22;31676;40.444;-3.668;2023-05-03T08:24:39;26.50;71.50
45969;DHT22;31676;40.444;-3.668;2023-05-03T08:27:05;26.50;71.50
45969;DHT22;31676;40.444;-3.668;2023-05-03T08:29:31;26.50;71.50
45969;DHT22;31676;40.444;-3.668;2023-05-03T08:31:57;26.50;71.50
45969;DHT22;31676;40.444;-3.668;2023-05-03T08:34:23;26.50;72.10
45969;DHT22;31676;40.444;-3.668;2023-05-03T08:36:49;26.50;71.50
45969;DHT22;31676;40.444;-3.668;2023-05-03T08:39:15;26.50;71.50
45969;DHT22;31676;40.444;-3.668;2023-05-03T08:41:41;26.50;71.50
45969;DHT22;31676;40.444;-3.668;2023-05-03T08:44:07;26.60;71.50
45969;DHT22;31676;40.444;-3.668;2023-05-03T08:46:35;26.50;71.50
45969;DHT22;31676;40.444;-3.668;2023-05-03T08:49:02;26.50;71.50
45969;DHT22;31676;40.444;-3.668;2023-05-03T08:51:28;26.50;71.50
45969;DHT22;31676;40.444;-3.668;2023-05-03T08:53:54;26.50;71.40
45969;DHT22;31676;40.444;-3.668;2023-05-03T08:56:30;26.50;71.50
45969;DHT22;31676;40.444;-3.668;2023-05-03T08:58:58;26.50;71.50
45969;DHT22;31676;40.444;-3.668;2023-05-03T09:01:31;26.50;71.40
45969;DHT22;31676;40.444;-3.668;2023-05-03T09:03:57;26.50;71.40
45969;DHT22;31676;40.444;-3.668;2023-05-03T09:06:23;26.50;71.40
45969;DHT22;31676;40.444;-3.668;2023-05-03T09:08:53;26.50;71.40
45969;DHT22;31676;40.444;-3.668;2023-05-03T09:11:26;26.60;71.50
45969;DHT22;31676;40.444;-3.668;2023-05-03T09:13:52;26.50;71.40
45969;DHT22;31676;40.444;-3.668;2023-05-03T09:16:21;26.60;71.50
45969;DHT22;31676;40.444;-3.668;2023-05-03T09:18:57;26.50;71.40
45969;DHT22;31676;40.444;-3.668;2023-05-03T09:21:23;26.60;71.50
45969;DHT22;31676;40.444;-3.668;2023-05-03T09:23:48;26.60;71.40
45969;DHT22;31676;40.444;-3.668;2023-05-03T09:26:33;26.60;71.50
45969;DHT22;31676;40.444;-3.668;2023-05-03T09:28:59;26.60;71.40
45969;DHT22;31676;40.444;-3.668;2023-05-03T09:31:29;26.60;71.40
45969;DHT22;31676;40.444;-3.668;2023-05-03T09:33:56;26.60;71.50
45969;DHT22;31676;40.444;-3.668;2023-05-03T09:36:22;26.60;71.40
45969;DHT22;31676;40.444;-3.668;2023-05-03T09:38:48;26.60;71.40
45969;DHT22;31676;40.444;-3.668;2023-05-03T09:41:14;26.60;71.40
45969;DHT22;31676;40.444;-3.668;2023-05-03T09:43:50;26.60;71.40
45969;DHT22;31676;40.444;-3.668;2023-05-03T09:46:16;26.60;71.40
45969;DHT22;31676;40.444;-3.668;2023-05-03T09:48:42;26.60;71.40
45969;DHT22;31676;40.444;-3.668;2023-05-03T09:51:08;26.60;71.40
45969;DHT22;31676;40.444;-3.668;2023-05-03T09:53:34;26.60;71.40
45969;DHT22;31676;40.444;-3.668;2023-05-03T09:56:01;26.60;71.30
45969;DHT22;31676;40.444;-3.668;2023-05-03T09:58:27;26.60;71.30
45969;DHT22;31676;40.444;-3.668;2023-05-03T10:00:55;26.60;71.30
45969;DHT22;31676;40.444;-3.668;2023-05-03T10:03:23;26.60;71.30
45969;DHT22;31676;40.444;-3.668;2023-05-03T10:05:52;26.60;71.30
45969;DHT22;31676;40.444;-3.668;2023-05-03T10:08:21;26.60;71.30
45969;DHT22;31676;40.444;-3.668;2023-05-03T10:10:49;26.60;71.30
45969;DHT22;31676;40.444;-3.668;2023-05-03T10:13:21;26.60;71.30
45969;DHT22;31676;40.444;-3.668;2023-05-03T10:15:48;26.60;71.30
45969;DHT22;31676;40.444;-3.668;2023-05-03T10:18:16;26.60;71.30
45969;DHT22;31676;40.444;-3.668;2023-05-03T10:20:47;26.70;71.30
45969;DHT22;31676;40.444;-3.668;2023-05-03T10:23:16;26.70;71.30
45969;DHT22;31676;40.444;-3.668;2023-05-03T10:28:26;26.70;71.40
45969;DHT22;31676;40.444;-3.668;2023-05-03T10:30:52;26.70;71.90
45969;DHT22;31676;40.444;-3.668;2023-05-03T10:35:50;26.70;71.30
45969;DHT22;31676;40.444;-3.668;2023-05-03T10:38:19;26.70;71.30
45969;DHT22;31676;40.444;-3.668;2023-05-03T10:40:45;26.70;71.30
45969;DHT22;31676;40.444;-3.668;2023-05-03T10:46:02;26.70;71.30
45969;DHT22;31676;40.444;-3.668;2023-05-03T10:48:28;26.70;71.30
45969;DHT22;31676;40.444;-3.668;2023-05-03T10:50:54;26.70;71.30
45969;DHT22;31676;40.444;-3.668;2023-05-03T10:53:33;26.70;71.30
45969;DHT22;31676;40.444;-3.668;2023-05-03T10:56:02;26.70;71.20
45969;DHT22;31676;40.444;-3.668;2023-05-03T10:58:36;26.70;71.20
45969;DHT22;31676;40.444;-3.668;2023-05-03T11:01:03;26.70;71.20
45969;DHT22;31676;40.444;-3.668;2023-05-03T11:03:34;26.70;71.20
45969;DHT22;31676;40.444;-3.668;2023-05-03T11:06:03;26.70;71.20
45969;DHT22;31676;40.444;-3.668;2023-05-03T11:08:29;26.70;71.20
45969;DHT22;31676;40.444;-3.668;2023-05-03T11:11:01;26.70;71.20
45969;DHT22;31676;40.444;-3.668;2023-05-03T11:13:29;26.80;71.20
45969;DHT22;31676;40.444;-3.668;2023-05-03T11:15:55;26.70;71.20
45969;DHT22;31676;40.444;-3.668;2023-05-03T11:18:21;26.70;71.10
45969;DHT22;31676;40.444;-3.668;2023-05-03T11:20:48;26.80;71.20
45969;DHT22;31676;40.444;-3.668;2023-05-03T11:23:14;26.80;71.20
45969;DHT22;31676;40.444;-3.668;2023-05-03T11:25:39;26.80;71.20
45969;DHT22;31676;40.444;-3.668;2023-05-03T11:28:06;26.80;71.20
45969;DHT22;31676;40.444;-3.668;2023-05-03T11:30:32;26.80;71.20
45969;DHT22;31676;40.444;-3.668;2023-05-03T11:32:58;26.80;71.20
45969;DHT22;31676;40.444;-3.668;2023-05-03T11:35:24;26.80;71.20
45969;DHT22;31676;40.444;-3.668;2023-05-03T11:37:51;26.80;71.10
45969;DHT22;31676;40.444;-3.668;2023-05-03T11:40:18;26.80;71.10
45969;DHT22;31676;40.444;-3.668;2023-05-03T11:42:59;26.80;71.10
45969;DHT22;31676;40.444;-3.668;2023-05-03T11:45:29;26.80;71.20
45969;DHT22;31676;40.444;-3.668;2023-05-03T11:47:55;26.80;71.20
45969;DHT22;31676;40.444;-3.668;2023-05-03T11:53:06;26.80;71.10
45969;DHT22;31676;40.444;-3.668;2023-05-03T11:55:32;26.90;71.20
45969;DHT22;31676;40.444;-3.668;2023-05-03T11:57:58;26.90;71.20
45969;DHT22;31676;40.444;-3.668;2023-05-03T12:00:25;26.80;71.10
45969;DHT22;31676;40.444;-3.668;2023-05-03T12:02:51;26.90;71.20
45969;DHT22;31676;40.444;-3.668;2023-05-03T12:05:17;26.80;71.10
45969;DHT22;31676;40.444;-3.668;2023-05-03T12:07:43;26.90;71.10
45969;DHT22;31676;40.444;-3.668;2023-05-03T12:10:30;26.90;71.10
45969;DHT22;31676;40.444;-3.668;2023-05-03T12:12:56;26.90;71.10
45969;DHT22;31676;40.444;-3.668;2023-05-03T12:15:26;26.90;71.10
45969;DHT22;31676;40.444;-3.668;2023-05-03T12:17:54;26.90;71.10
45969;DHT22;31676;40.444;-3.668;2023-05-03T12:20:20;26.90;71.10
45969;DHT22;31676;40.444;-3.668;2023-05-03T12:22:47;26.90;71.10
45969;DHT22;31676;40.444;-3.668;2023-05-03T12:25:13;26.90;71.10
45969;DHT22;31676;40.444;-3.668;2023-05-03T12:27:39;26.90;71.10
45969;DHT22;31676;40.444;-3.668;2023-05-03T12:30:05;26.90;71.10
45969;DHT22;31676;40.444;-3.668;2023-05-03T12:32:30;26.90;71.10
45969;DHT22;31676;40.444;-3.668;2023-05-03T12:34:56;26.90;71.10
45969;DHT22;31676;40.444;-3.668;2023-05-03T12:37:22;26.90;71.10
45969;DHT22;31676;40.444;-3.668;2023-05-03T12:39:47;26.90;71.10
45969;DHT22;31676;40.444;-3.668;2023-05-03T12:42:13;26.90;71.10
45969;DHT22;31676;40.444;-3.668;2023-05-03T12:44:39;26.90;71.10
45969;DHT22;31676;40.444;-3.668;2023-05-03T12:47:05;26.90;71.10
45969;DHT22;31676;40.444;-3.668;2023-05-03T12:49:31;26.90;71.10
45969;DHT22;31676;40.444;-3.668;2023-05-03T12:51:56;26.90;71.00
45969;DHT22;31676;40.444;-3.668;2023-05-03T12:54:27;26.90;71.00
45969;DHT22;31676;40.444;-3.668;2023-05-03T12:56:53;26.90;71.10
45969;DHT22;31676;40.444;-3.668;2023-05-03T12:59:19;26.90;71.00
45969;DHT22;31676;40.444;-3.668;2023-05-03T13:01:45;27.00;71.10
45969;DHT22;31676;40.444;-3.668;2023-05-03T13:04:11;26.90;71.00
45969;DHT22;31676;40.444;-3.668;2023-05-03T13:06:37;26.90;71.00
45969;DHT22;31676;40.444;-3.668;2023-05-03T13:09:03;27.00;71.10
45969;DHT22;31676;40.444;-3.668;2023-05-03T13:11:30;26.90;71.00
45969;DHT22;31676;40.444;-3.668;2023-05-03T13:13:56;26.90;71.00
45969;DHT22;31676;40.444;-3.668;2023-05-03T13:16:22;27.00;71.10
45969;DHT22;31676;40.444;-3.668;2023-05-03T13:18:48;27.00;71.10
45969;DHT22;31676;40.444;-3.668;2023-05-03T13:21:19;27.00;71.10
45969;DHT22;31676;40.444;-3.668;2023-05-03T13:23:45;27.00;71.10
45969;DHT22;31676;40.444;-3.668;2023-05-03T13:26:11;27.00;71.10
45969;DHT22;31676;40.444;-3.668;2023-05-03T13:28:37;27.00;71.10
45969;DHT22;31676;40.444;-3.668;2023-05-03T13:31:05;27.00;71.10
45969;DHT22;31676;40.444;-3.668;2023-05-03T13:33:31;27.00;71.10
45969;DHT22;31676;40.444;-3.668;2023-05-03T13:35:56;27.00;71.10
45969;DHT22;31676;40.444;-3.668;2023-05-03T13:38:22;27.00;71.10
45969;DHT22;31676;40.444;-3.668;2023-05-03T13:40:48;27.00;71.00
45969;DHT22;31676;40.444;-3.668;2023-05-03T13:43:13;27.00;71.00
45969;DHT22;31676;40.444;-3.668;2023-05-03T13:45:39;27.00;71.00
45969;DHT22;31676;40.444;-3.668;2023-05-03T13:48:05;27.00;71.10
45969;DHT22;31676;40.444;-3.668;2023-05-03T13:50:31;27.00;71.00
45969;DHT22;31676;40.444;-3.668;2023-05-03T13:52:57;27.00;71.00
45969;DHT22;31676;40.444;-3.668;2023-05-03T13:55:23;27.00;71.00
45969;DHT22;31676;40.444;-3.668;2023-05-03T13:57:50;27.00;71.00
45969;DHT22;31676;40.444;-3.668;2023-05-03T14:00:16;27.10;71.10
45969;DHT22;31676;40.444;-3.668;2023-05-03T14:02:42;27.00;71.00
45969;DHT22;31676;40.444;-3.668;2023-05-03T14:05:08;27.00;71.00
45969;DHT22;31676;40.444;-3.668;2023-05-03T14:07:35;27.00;71.00
45969;DHT22;31676;40.444;-3.668;2023-05-03T14:10:00;27.00;71.00
45969;DHT22;31676;40.444;-3.668;2023-05-03T14:12:26;27.10;71.10
45969;DHT22;31676;40.444;-3.668;2023-05-03T14:14:52;27.10;71.10
45969;DHT22;31676;40.444;-3.668;2023-05-03T14:17:18;27.00;71.00
45969;DHT22;31676;40.444;-3.668;2023-05-03T14:19:44;27.00;71.00
45969;DHT22;31676;40.444;-3.668;2023-05-03T14:22:10;27.10;71.10
45969;DHT22;31676;40.444;-3.668;2023-05-03T14:24:37;27.00;71.00
45969;DHT22;31676;40.444;-3.668;2023-05-03T14:27:04;27.10;71.10
45969;DHT22;31676;40.444;-3.668;2023-05-03T14:29:31;27.10;71.10
45969;DHT22;31676;40.444;-3.668;2023-05-03T14:31:56;27.10;71.10
45969;DHT22;31676;40.444;-3.668;2023-05-03T14:34:22;27.10;71.10
45969;DHT22;31676;40.444;-3.668;2023-05-03T14:36:48;27.10;71.10
45969;DHT22;31676;40.444;-3.668;2023-05-03T14:39:13;27.10;71.10
45969;DHT22;31676;40.444;-3.668;2023-05-03T14:41:39;27.10;71.10
45969;DHT22;31676;40.444;-3.668;2023-05-03T14:44:05;27.10;71.10
45969;DHT22;31676;40.444;-3.668;2023-05-03T14:46:31;27.10;71.10
45969;DHT22;31676;40.444;-3.668;2023-05-03T14:48:57;27.10;71.10
45969;DHT22;31676;40.444;-3.668;2023-05-03T14:51:23;27.10;71.10
45969;DHT22;31676;40.444;-3.668;2023-05-03T14:53:49;27.10;71.10
45969;DHT22;31676;40.444;-3.668;2023-05-03T14:56:15;27.10;71.10
45969;DHT22;31676;40.444;-3.668;2023-05-03T14:58:40;27.10;71.10
45969;DHT22;31676;40.444;-3.668;2023-05-03T15:01:06;27.10;71.10
45969;DHT22;31676;40.444;-3.668;2023-05-03T15:03:32;27.10;71.70
45969;DHT22;31676;40.444;-3.668;2023-05-03T15:05:57;27.10;71.10
45969;DHT22;31676;40.444;-3.668;2023-05-03T15:08:25;27.10;71.10
45969;DHT22;31676;40.444;-3.668;2023-05-03T15:10:51;27.10;71.10
45969;DHT22;31676;40.444;-3.668;2023-05-03T15:13:17;27.10;71.10
45969;DHT22;31676;40.444;-3.668;2023-05-03T15:15:43;27.10;71.10
45969;DHT22;31676;40.444;-3.668;2023-05-03T15:18:10;27.10;71.10
45969;DHT22;31676;40.444;-3.668;2023-05-03T15:20:37;27.10;71.10
45969;DHT22;31676;40.444;-3.668;2023-05-03T15:23:04;27.10;71.10
45969;DHT22;31676;40.444;-3.668;2023-05-03T15:25:30;27.20;71.10
45969;DHT22;31676;40.444;-3.668;2023-05-03T15:27:55;27.10;71.10
45969;DHT22;31676;40.444;-3.668;2023-05-03T15:30:21;27.10;71.10
45969;DHT22;31676;40.444;-3.668;2023-05-03T15:32:47;27.20;71.10
45969;DHT22;31676;40.444;-3.668;2023-05-03T15:35:13;27.10;71.10
45969;DHT22;31676;40.444;-3.668;2023-05-03T15:37:39;27.20;71.10